sensor_id;sensor_type;location;lat;lon;timestamp;pressure;altitude;pressure_sealevel;temperature;humidity
82171;BME280;71755;48.038;14.346;2024-03-08T00:00:00;97582.66;;;0.72;100.00
82171;BME280;71755;48.038;14.346;2024-03-08T00:02:36;97583.66;;;0.71;100.00
82171;BME280;71755;48.038;14.346;2024-03-08T00:05:04;97577.41;;;0.72;100.00
82171;BME280;71755;48.038;14.346;2024-03-08T00:07:31;97575.41;;;0.74;100.00
82171;BME280;71755;48.038;14.346;2024-03-08T00:09:56;97575.25;;;0.75;100.00
82171;BME280;71755;48.038;14.346;2024-03-08T00:12:22;97575.88;;;0.77;100.00
82171;BME280;71755;48.038;14.346;2024-03-08T00:14:51;97576.72;;;0.78;100.00
82171;BME280;71755;48.038;14.346;2024-03-08T00:17:17;97579.97;;;0.80;100.00
82171;BME280;71755;48.038;14.346;2024-03-08T00:19:43;97574.72;;;0.80;100.00
82171;BME280;71755;48.038;14.346;2024-03-08T00:22:09;97581.97;;;0.78;100.00
82171;BME280;71755;48.038;14.346;2024-03-08T00:24:37;97579.97;;;0.80;100.00
82171;BME280;71755;48.038;14.346;2024-03-08T00:27:02;97583.59;;;0.79;100.00
82171;BME280;71755;48.038;14.346;2024-03-08T00:29:30;97579.50;;;0.76;100.00
82171;BME280;71755;48.038;14.346;2024-03-08T00:31:56;97583.97;;;0.76;100.00
82171;BME280;71755;48.038;14.346;2024-03-08T00:34:23;97575.88;;;0.77;100.00
82171;BME280;71755;48.038;14.346;2024-03-08T00:36:50;97575.88;;;0.77;100.00
82171;BME280;71755;48.038;14.346;2024-03-08T00:39:18;97574.44;;;0.75;100.00
82171;BME280;71755;48.038;14.346;2024-03-08T00:41:47;97564.25;;;0.72;100.00
82171;BME280;71755;48.038;14.346;2024-03-08T00:44:13;97568.53;;;0.73;100.00
82171;BME280;71755;48.038;14.346;2024-03-08T00:46:39;97569.34;;;0.73;100.00
82171;BME280;71755;48.038;14.346;2024-03-08T00:49:05;97564.63;;;0.69;99.84
82171;BME280;71755;48.038;14.346;2024-03-08T00:51:32;97560.81;;;0.71;99.75
82171;BME280;71755;48.038;14.346;2024-03-08T00:53:58;97549.03;;;0.67;99.73
82171;BME280;71755;48.038;14.346;2024-03-08T00:56:24;97553.47;;;0.67;99.42
82171;BME280;71755;48.038;14.346;2024-03-08T00:58:50;97558.28;;;0.63;99.54
82171;BME280;71755;48.038;14.346;2024-03-08T01:01:18;97550.50;;;0.55;99.50
82171;BME280;71755;48.038;14.346;2024-03-08T01:03:44;97546.06;;;0.55;99.45
82171;BME280;71755;48.038;14.346;2024-03-08T01:06:10;97546.41;;;0.52;99.61
82171;BME280;71755;48.038;14.346;2024-03-08T01:08:37;97535.00;;;0.45;99.61
82171;BME280;71755;48.038;14.346;2024-03-08T01:11:08;97538.19;;;0.41;99.09
82171;BME280;71755;48.038;14.346;2024-03-08T01:13:35;97530.47;;;0.39;99.10
82171;BME280;71755;48.038;14.346;2024-03-08T01:16:01;97524.56;;;0.37;99.36
82171;BME280;71755;48.038;14.346;2024-03-08T01:18:29;97522.66;;;0.31;99.29
82171;BME280;71755;48.038;14.346;2024-03-08T01:20:55;97529.91;;;0.29;99.17
82171;BME280;71755;48.038;14.346;2024-03-08T01:23:21;97517.03;;;0.34;99.17
82171;BME280;71755;48.038;14.346;2024-03-08T01:25:47;97514.31;;;0.27;99.02
82171;BME280;71755;48.038;14.346;2024-03-08T01:28:17;97514.31;;;0.27;99.21
82171;BME280;71755;48.038;14.346;2024-03-08T01:30:43;97508.44;;;0.25;99.12
82171;BME280;71755;48.038;14.346;2024-03-08T01:33:10;97502.38;;;0.25;99.02
82171;BME280;71755;48.038;14.346;2024-03-08T01:35:35;97504.53;;;0.21;99.37
82171;BME280;71755;48.038;14.346;2024-03-08T01:38:01;97506.34;;;0.21;99.41
82171;BME280;71755;48.038;14.346;2024-03-08T01:40:27;97506.72;;;0.18;99.67
82171;BME280;71755;48.038;14.346;2024-03-08T01:42:53;97497.03;;;0.18;99.88
82171;BME280;71755;48.038;14.346;2024-03-08T01:45:19;97499.47;;;0.20;99.86
82171;BME280;71755;48.038;14.346;2024-03-08T01:47:45;97498.47;;;0.21;100.00
82171;BME280;71755;48.038;14.346;2024-03-08T01:50:14;97495.47;;;0.24;99.79
82171;BME280;71755;48.038;14.346;2024-03-08T01:52:42;97497.47;;;0.22;100.00
82171;BME280;71755;48.038;14.346;2024-03-08T01:55:09;97493.41;;;0.19;100.00
82171;BME280;71755;48.038;14.346;2024-03-08T01:57:35;97492.94;;;0.16;100.00
82171;BME280;71755;48.038;14.346;2024-03-08T02:00:03;97483.06;;;0.18;100.00
82171;BME280;71755;48.038;14.346;2024-03-08T02:02:32;97488.88;;;0.13;100.00
82171;BME280;71755;48.038;14.346;2024-03-08T02:05:00;97482.00;;;0.12;100.00
82171;BME280;71755;48.038;14.346;2024-03-08T02:07:27;97475.75;;;0.13;100.00
82171;BME280;71755;48.038;14.346;2024-03-08T02:09:52;97480.81;;;0.15;100.00
82171;BME280;71755;48.038;14.346;2024-03-08T02:12:19;97477.53;;;0.13;100.00
82171;BME280;71755;48.038;14.346;2024-03-08T02:14:46;97481.16;;;0.12;100.00
82171;BME280;71755;48.038;14.346;2024-03-08T02:17:12;97478.47;;;0.05;100.00
82171;BME280;71755;48.038;14.346;2024-03-08T02:19:38;97473.66;;;0.09;100.00
82171;BME280;71755;48.038;14.346;2024-03-08T02:22:05;97475.09;;;0.11;100.00
82171;BME280;71755;48.038;14.346;2024-03-08T02:24:32;97470.13;;;0.02;100.00
82171;BME280;71755;48.038;14.346;2024-03-08T02:26:59;97471.75;;;0.03;100.00
82171;BME280;71755;48.038;14.346;2024-03-08T02:29:25;97464.56;;;-0.04;100.00
82171;BME280;71755;48.038;14.346;2024-03-08T02:31:53;97462.56;;;-0.02;100.00
82171;BME280;71755;48.038;14.346;2024-03-08T02:34:19;97461.59;;;-0.01;100.00
82171;BME280;71755;48.038;14.346;2024-03-08T02:36:45;97456.50;;;-0.02;100.00
82171;BME280;71755;48.038;14.346;2024-03-08T02:39:12;97461.59;;;-0.01;100.00
82171;BME280;71755;48.038;14.346;2024-03-08T02:41:38;97453.88;;;-0.02;100.00
82171;BME280;71755;48.038;14.346;2024-03-08T02:44:04;97461.59;;;-0.01;100.00
82171;BME280;71755;48.038;14.346;2024-03-08T02:46:30;97460.94;;;-0.03;100.00
82171;BME280;71755;48.038;14.346;2024-03-08T02:48:56;97458.31;;;-0.03;100.00
82171;BME280;71755;48.038;14.346;2024-03-08T02:51:22;97464.38;;;-0.02;100.00
82171;BME280;71755;48.038;14.346;2024-03-08T02:53:48;97459.50;;;-0.05;100.00
82171;BME280;71755;48.038;14.346;2024-03-08T02:56:17;97456.41;;;-0.09;100.00
82171;BME280;71755;48.038;14.346;2024-03-08T02:58:43;97455.41;;;-0.08;100.00
82171;BME280;71755;48.038;14.346;2024-03-08T03:01:15;97458.69;;;-0.06;100.00
82171;BME280;71755;48.038;14.346;2024-03-08T03:03:41;97459.03;;;-0.09;100.00
82171;BME280;71755;48.038;14.346;2024-03-08T03:06:08;97456.88;;;-0.05;100.00
82171;BME280;71755;48.038;14.346;2024-03-08T03:08:34;97451.00;;;-0.07;100.00
82171;BME280;71755;48.038;14.346;2024-03-08T03:11:00;97448.09;;;-0.12;100.00
82171;BME280;71755;48.038;14.346;2024-03-08T03:13:26;97447.72;;;-0.09;100.00
82171;BME280;71755;48.038;14.346;2024-03-08T03:15:51;97438.03;;;-0.09;100.00
82171;BME280;71755;48.038;14.346;2024-03-08T03:18:17;97435.41;;;-0.09;100.00
82171;BME280;71755;48.038;14.346;2024-03-08T03:20:47;97433.59;;;-0.08;100.00
82171;BME280;71755;48.038;14.346;2024-03-08T03:23:13;97434.59;;;-0.09;100.00
82171;BME280;71755;48.038;14.346;2024-03-08T03:25:39;97433.97;;;-0.11;100.00
82171;BME280;71755;48.038;14.346;2024-03-08T03:28:07;97430.34;;;-0.10;100.00
82171;BME280;71755;48.038;14.346;2024-03-08T03:30:33;97429.53;;;-0.11;100.00
82171;BME280;71755;48.038;14.346;2024-03-08T03:33:00;97442.03;;;-0.13;100.00
82171;BME280;71755;48.038;14.346;2024-03-08T03:35:27;97435.16;;;-0.14;100.00
82171;BME280;71755;48.038;14.346;2024-03-08T03:37:53;97429.34;;;-0.09;100.00
82171;BME280;71755;48.038;14.346;2024-03-08T03:40:33;97428.72;;;-0.11;100.00
82171;BME280;71755;48.038;14.346;2024-03-08T03:43:00;97420.03;;;-0.12;100.00
82171;BME280;71755;48.038;14.346;2024-03-08T03:45:26;97421.84;;;-0.12;100.00
82171;BME280;71755;48.038;14.346;2024-03-08T03:47:52;97431.34;;;-0.11;100.00
82171;BME280;71755;48.038;14.346;2024-03-08T03:50:19;97419.22;;;-0.12;100.00
82171;BME280;71755;48.038;14.346;2024-03-08T03:52:46;97421.03;;;-0.13;100.00
82171;BME280;71755;48.038;14.346;2024-03-08T03:55:13;97411.34;;;-0.12;100.00
82171;BME280;71755;48.038;14.346;2024-03-08T03:57:39;97417.59;;;-0.13;100.00
82171;BME280;71755;48.038;14.346;2024-03-08T04:00:07;97411.34;;;-0.12;100.00
82171;BME280;71755;48.038;14.346;2024-03-08T04:02:39;97406.25;;;-0.14;100.00
82171;BME280;71755;48.038;14.346;2024-03-08T04:05:08;97412.50;;;-0.15;100.00
82171;BME280;71755;48.038;14.346;2024-03-08T04:07:35;97412.31;;;-0.13;100.00
82171;BME280;71755;48.038;14.346;2024-03-08T04:10:03;97410.69;;;-0.14;100.00
82171;BME280;71755;48.038;14.346;2024-03-08T04:12:29;97408.44;;;-0.17;100.00
82171;BME280;71755;48.038;14.346;2024-03-08T04:14:56;97404.19;;;-0.18;100.00
82171;BME280;71755;48.038;14.346;2024-03-08T04:17:22;97397.94;;;-0.17;100.00
82171;BME280;71755;48.038;14.346;2024-03-08T04:19:50;97394.84;;;-0.21;100.00
82171;BME280;71755;48.038;14.346;2024-03-08T04:22:16;97393.69;;;-0.18;100.00
82171;BME280;71755;48.038;14.346;2024-03-08T04:24:44;97393.50;;;-0.17;100.00
82171;BME280;71755;48.038;14.346;2024-03-08T04:27:10;97390.25;;;-0.19;100.00
82171;BME280;71755;48.038;14.346;2024-03-08T04:29:36;97394.50;;;-0.18;100.00
82171;BME280;71755;48.038;14.346;2024-03-08T04:32:03;97395.13;;;-0.16;100.00
82171;BME280;71755;48.038;14.346;2024-03-08T04:34:31;97390.50;;;-0.14;100.00
82171;BME280;71755;48.038;14.346;2024-03-08T04:36:57;97384.63;;;-0.16;100.00
82171;BME280;71755;48.038;14.346;2024-03-08T04:39:24;97378.38;;;-0.15;100.00
82171;BME280;71755;48.038;14.346;2024-03-08T04:41:55;97387.88;;;-0.14;100.00
82171;BME280;71755;48.038;14.346;2024-03-08T04:44:23;97385.25;;;-0.14;100.00
82171;BME280;71755;48.038;14.346;2024-03-08T04:46:53;97391.50;;;-0.15;100.00
82171;BME280;71755;48.038;14.346;2024-03-08T04:49:19;97391.16;;;-0.12;100.00
82171;BME280;71755;48.038;14.346;2024-03-08T04:51:47;97389.69;;;-0.14;100.00
82171;BME280;71755;48.038;14.346;2024-03-08T04:54:13;97389.06;;;-0.16;100.00
82171;BME280;71755;48.038;14.346;2024-03-08T04:56:39;97392.69;;;-0.17;100.00
82171;BME280;71755;48.038;14.346;2024-03-08T04:59:05;97392.69;;;-0.17;100.00
82171;BME280;71755;48.038;14.346;2024-03-08T05:01:34;97393.88;;;-0.20;100.00
82171;BME280;71755;48.038;14.346;2024-03-08T05:04:04;97383.09;;;-0.25;100.00
82171;BME280;71755;48.038;14.346;2024-03-08T05:06:31;97388.34;;;-0.25;100.00
82171;BME280;71755;48.038;14.346;2024-03-08T05:08:58;97387.34;;;-0.24;100.00
82171;BME280;71755;48.038;14.346;2024-03-08T05:11:24;97391.78;;;-0.24;100.00
82171;BME280;71755;48.038;14.346;2024-03-08T05:13:50;97395.41;;;-0.25;100.00
82171;BME280;71755;48.038;14.346;2024-03-08T05:16:16;97393.41;;;-0.23;100.00
82171;BME280;71755;48.038;14.346;2024-03-08T05:18:42;97388.97;;;-0.23;100.00
82171;BME280;71755;48.038;14.346;2024-03-08T05:21:08;97385.19;;;-0.20;100.00
82171;BME280;71755;48.038;14.346;2024-03-08T05:23:35;97387.63;;;-0.19;100.00
82171;BME280;71755;48.038;14.346;2024-03-08T05:26:01;97391.06;;;-0.18;100.00
82171;BME280;71755;48.038;14.346;2024-03-08T05:28:27;97380.75;;;-0.20;100.00
82171;BME280;71755;48.038;14.346;2024-03-08T05:30:52;97379.75;;;-0.19;100.00
82171;BME280;71755;48.038;14.346;2024-03-08T05:33:18;97382.81;;;-0.15;100.00
82171;BME280;71755;48.038;14.346;2024-03-08T05:35:45;97388.06;;;-0.15;100.00
82171;BME280;71755;48.038;14.346;2024-03-08T05:38:11;97375.94;;;-0.16;100.00
82171;BME280;71755;48.038;14.346;2024-03-08T05:40:38;97371.31;;;-0.14;100.00
82171;BME280;71755;48.038;14.346;2024-03-08T05:43:04;97367.25;;;-0.17;100.00
82171;BME280;71755;48.038;14.346;2024-03-08T05:45:31;97366.63;;;-0.19;100.00
82171;BME280;71755;48.038;14.346;2024-03-08T05:47:57;97371.69;;;-0.17;100.00
82171;BME280;71755;48.038;14.346;2024-03-08T05:50:22;97357.75;;;-0.18;100.00
82171;BME280;71755;48.038;14.346;2024-03-08T05:52:48;97360.00;;;-0.15;100.00
82171;BME280;71755;48.038;14.346;2024-03-08T05:55:15;97367.69;;;-0.13;100.00
82171;BME280;71755;48.038;14.346;2024-03-08T05:57:42;97364.25;;;-0.14;100.00
82171;BME280;71755;48.038;14.346;2024-03-08T06:00:09;97370.50;;;-0.15;100.00
82171;BME280;71755;48.038;14.346;2024-03-08T06:02:38;97372.94;;;-0.13;100.00
82171;BME280;71755;48.038;14.346;2024-03-08T06:05:12;97370.97;;;-0.11;100.00
82171;BME280;71755;48.038;14.346;2024-03-08T06:07:38;97362.72;;;-0.08;100.00
82171;BME280;71755;48.038;14.346;2024-03-08T06:10:10;97366.97;;;-0.07;100.00
82171;BME280;71755;48.038;14.346;2024-03-08T06:12:38;97369.41;;;-0.06;100.00
82171;BME280;71755;48.038;14.346;2024-03-08T06:15:10;97360.91;;;-0.08;100.00
82171;BME280;71755;48.038;14.346;2024-03-08T06:17:40;97359.91;;;-0.07;100.00
82171;BME280;71755;48.038;14.346;2024-03-08T06:20:07;97367.78;;;-0.07;100.00
82171;BME280;71755;48.038;14.346;2024-03-08T06:22:38;97361.72;;;-0.07;100.00
82171;BME280;71755;48.038;14.346;2024-03-08T06:25:11;97357.28;;;-0.07;100.00
82171;BME280;71755;48.038;14.346;2024-03-08T06:27:41;97354.91;;;-0.02;100.00
82171;BME280;71755;48.038;14.346;2024-03-08T06:30:12;97344.78;;;-0.05;100.00
82171;BME280;71755;48.038;14.346;2024-03-08T06:32:38;97340.16;;;-0.03;100.00
82171;BME280;71755;48.038;14.346;2024-03-08T06:35:05;97345.22;;;-0.01;100.00
82171;BME280;71755;48.038;14.346;2024-03-08T06:37:32;97352.94;;;0.01;100.00
82171;BME280;71755;48.038;14.346;2024-03-08T06:39:59;97348.97;;;0.05;100.00
82171;BME280;71755;48.038;14.346;2024-03-08T06:42:27;97351.84;;;0.10;100.00
82171;BME280;71755;48.038;14.346;2024-03-08T06:44:54;97353.13;;;0.14;100.00
82171;BME280;71755;48.038;14.346;2024-03-08T06:47:21;97358.81;;;0.17;100.00
82171;BME280;71755;48.038;14.346;2024-03-08T06:49:51;97355.00;;;0.20;100.00
82171;BME280;71755;48.038;14.346;2024-03-08T06:52:18;97357.63;;;0.20;100.00
82171;BME280;71755;48.038;14.346;2024-03-08T06:54:44;97361.50;;;0.24;100.00
82171;BME280;71755;48.038;14.346;2024-03-08T06:57:09;97355.88;;;0.27;100.00
82171;BME280;71755;48.038;14.346;2024-03-08T06:59:36;97357.16;;;0.31;100.00
82171;BME280;71755;48.038;14.346;2024-03-08T07:02:02;97360.41;;;0.33;100.00
82171;BME280;71755;48.038;14.346;2024-03-08T07:04:29;97358.31;;;0.43;100.00
82171;BME280;71755;48.038;14.346;2024-03-08T07:06:58;97345.81;;;0.45;100.00
82171;BME280;71755;48.038;14.346;2024-03-08T07:09:25;97350.69;;;0.48;100.00
82171;BME280;71755;48.038;14.346;2024-03-08T07:11:51;97350.75;;;0.55;100.00
82171;BME280;71755;48.038;14.346;2024-03-08T07:14:23;97343.13;;;0.60;100.00
82171;BME280;71755;48.038;14.346;2024-03-08T07:16:49;97344.94;;;0.59;100.00
82171;BME280;71755;48.038;14.346;2024-03-08T07:19:16;97334.22;;;0.61;100.00
82171;BME280;71755;48.038;14.346;2024-03-08T07:21:43;97334.84;;;0.63;100.00
82171;BME280;71755;48.038;14.346;2024-03-08T07:24:10;97339.16;;;0.71;100.00
82171;BME280;71755;48.038;14.346;2024-03-08T07:26:43;97340.06;;;0.78;100.00
82171;BME280;71755;48.038;14.346;2024-03-08T07:29:09;97341.31;;;0.82;100.00
82171;BME280;71755;48.038;14.346;2024-03-08T07:31:35;97330.44;;;0.85;100.00
82171;BME280;71755;48.038;14.346;2024-03-08T07:34:16;97333.50;;;0.88;100.00
82171;BME280;71755;48.038;14.346;2024-03-08T07:36:42;97326.03;;;0.92;100.00
82171;BME280;71755;48.038;14.346;2024-03-08T07:39:08;97321.84;;;0.98;100.00
82171;BME280;71755;48.038;14.346;2024-03-08T07:41:38;97340.81;;;0.93;100.00
82171;BME280;71755;48.038;14.346;2024-03-08T07:44:07;97331.72;;;0.96;100.00
82171;BME280;71755;48.038;14.346;2024-03-08T07:46:33;97335.84;;;1.05;100.00
82171;BME280;71755;48.038;14.346;2024-03-08T07:49:03;97319.81;;;1.21;100.00
82171;BME280;71755;48.038;14.346;2024-03-08T07:51:29;97317.81;;;1.23;100.00
82171;BME280;71755;48.038;14.346;2024-03-08T07:53:56;97311.16;;;1.27;100.00
82171;BME280;71755;48.038;14.346;2024-03-08T07:56:22;97316.41;;;1.27;100.00
82171;BME280;71755;48.038;14.346;2024-03-08T07:58:48;97310.53;;;1.25;100.00
82171;BME280;71755;48.038;14.346;2024-03-08T08:01:17;97318.41;;;1.25;100.00
82171;BME280;71755;48.038;14.346;2024-03-08T08:03:44;97310.53;;;1.25;100.00
82171;BME280;71755;48.038;14.346;2024-03-08T08:06:10;97304.06;;;1.28;100.00
82171;BME280;71755;48.038;14.346;2024-03-08T08:08:42;97296.41;;;1.33;100.00
82171;BME280;71755;48.038;14.346;2024-03-08T08:11:08;97305.78;;;1.42;100.00
82171;BME280;71755;48.038;14.346;2024-03-08T08:13:37;97297.88;;;1.42;100.00
82171;BME280;71755;48.038;14.346;2024-03-08T08:16:03;97301.19;;;1.50;100.00
82171;BME280;71755;48.038;14.346;2024-03-08T08:18:31;97290.09;;;1.55;100.00
82171;BME280;71755;48.038;14.346;2024-03-08T08:20:59;97299.06;;;1.67;100.00
82171;BME280;71755;48.038;14.346;2024-03-08T08:23:26;97293.69;;;1.88;100.00
82171;BME280;71755;48.038;14.346;2024-03-08T08:25:52;97300.00;;;1.94;99.75
82171;BME280;71755;48.038;14.346;2024-03-08T08:28:17;97297.84;;;2.17;100.00
82171;BME280;71755;48.038;14.346;2024-03-08T08:30:44;97290.81;;;2.25;98.65
82171;BME280;71755;48.038;14.346;2024-03-08T08:33:10;97291.66;;;2.51;98.63
82171;BME280;71755;48.038;14.346;2024-03-08T08:35:37;97285.03;;;2.69;98.53
82171;BME280;71755;48.038;14.346;2024-03-08T08:38:04;97279.75;;;2.69;97.14
82171;BME280;71755;48.038;14.346;2024-03-08T08:40:31;97280.16;;;2.79;96.23
82171;BME280;71755;48.038;14.346;2024-03-08T08:42:58;97272.44;;;2.91;96.28
82171;BME280;71755;48.038;14.346;2024-03-08T08:45:24;97266.75;;;2.94;96.13
82171;BME280;71755;48.038;14.346;2024-03-08T08:47:50;97259.88;;;2.99;95.17
82171;BME280;71755;48.038;14.346;2024-03-08T08:50:15;97263.53;;;3.05;94.15
82171;BME280;71755;48.038;14.346;2024-03-08T08:52:42;97258.47;;;3.03;92.88
82171;BME280;71755;48.038;14.346;2024-03-08T08:55:09;97254.75;;;3.24;93.16
82171;BME280;71755;48.038;14.346;2024-03-08T08:57:40;97260.44;;;3.34;92.81
82171;BME280;71755;48.038;14.346;2024-03-08T09:00:07;97246.44;;;3.40;92.97
82171;BME280;71755;48.038;14.346;2024-03-08T09:02:36;97251.47;;;3.49;92.78
82171;BME280;71755;48.038;14.346;2024-03-08T09:05:03;97249.47;;;3.44;92.17
82171;BME280;71755;48.038;14.346;2024-03-08T09:07:29;97250.25;;;3.51;91.86
82171;BME280;71755;48.038;14.346;2024-03-08T09:09:55;97243.72;;;3.73;90.89
82171;BME280;71755;48.038;14.346;2024-03-08T09:12:24;97249.78;;;3.81;90.41
82171;BME280;71755;48.038;14.346;2024-03-08T09:14:50;97232.22;;;3.93;91.14
82171;BME280;71755;48.038;14.346;2024-03-08T09:17:16;97229.72;;;4.11;90.19
82171;BME280;71755;48.038;14.346;2024-03-08T09:19:49;97217.91;;;4.14;89.19
82171;BME280;71755;48.038;14.346;2024-03-08T09:22:15;97218.47;;;4.22;89.81
82171;BME280;71755;48.038;14.346;2024-03-08T09:24:41;97224.16;;;4.26;88.99
82171;BME280;71755;48.038;14.346;2024-03-08T09:27:08;97217.91;;;4.45;88.08
82171;BME280;71755;48.038;14.346;2024-03-08T09:29:35;97223.78;;;4.54;87.79
82171;BME280;71755;48.038;14.346;2024-03-08T09:32:01;97213.84;;;4.74;87.44
82171;BME280;71755;48.038;14.346;2024-03-08T09:34:28;97214.13;;;4.66;86.71
82171;BME280;71755;48.038;14.346;2024-03-08T09:36:53;97206.34;;;4.71;86.73
82171;BME280;71755;48.038;14.346;2024-03-08T09:39:19;97208.41;;;4.94;86.45
82171;BME280;71755;48.038;14.346;2024-03-08T09:41:47;97214.19;;;5.27;87.17
82171;BME280;71755;48.038;14.346;2024-03-08T09:44:14;97203.84;;;5.44;86.49
82171;BME280;71755;48.038;14.346;2024-03-08T09:46:40;97191.31;;;5.51;85.52
82171;BME280;71755;48.038;14.346;2024-03-08T09:49:07;97203.31;;;5.54;85.35
82171;BME280;71755;48.038;14.346;2024-03-08T09:51:34;97193.75;;;5.71;85.08
82171;BME280;71755;48.038;14.346;2024-03-08T09:54:04;97191.69;;;5.73;83.87
82171;BME280;71755;48.038;14.346;2024-03-08T09:56:32;97195.53;;;5.59;84.17
82171;BME280;71755;48.038;14.346;2024-03-08T09:59:01;97186.59;;;5.90;83.89
82171;BME280;71755;48.038;14.346;2024-03-08T10:01:54;97179.44;;;6.09;83.28
82171;BME280;71755;48.038;14.346;2024-03-08T10:04:24;97176.72;;;6.27;82.11
82171;BME280;71755;48.038;14.346;2024-03-08T10:06:52;97172.91;;;6.23;82.08
82171;BME280;71755;48.038;14.346;2024-03-08T10:09:18;97171.25;;;6.10;82.04
82171;BME280;71755;48.038;14.346;2024-03-08T10:11:46;97169.94;;;6.31;82.55
82171;BME280;71755;48.038;14.346;2024-03-08T10:14:12;97178.75;;;6.55;80.77
82171;BME280;71755;48.038;14.346;2024-03-08T10:16:39;97168.59;;;6.52;80.78
82171;BME280;71755;48.038;14.346;2024-03-08T10:19:05;97156.47;;;6.44;80.06
82171;BME280;71755;48.038;14.346;2024-03-08T10:21:32;97162.13;;;6.48;78.54
82171;BME280;71755;48.038;14.346;2024-03-08T10:23:58;97159.38;;;6.66;78.05
82171;BME280;71755;48.038;14.346;2024-03-08T10:26:24;97160.81;;;6.80;78.15
82171;BME280;71755;48.038;14.346;2024-03-08T10:28:52;97155.59;;;6.97;79.49
82171;BME280;71755;48.038;14.346;2024-03-08T10:31:19;97148.56;;;7.14;78.89
82171;BME280;71755;48.038;14.346;2024-03-08T10:33:48;97153.75;;;6.98;79.59
82171;BME280;71755;48.038;14.346;2024-03-08T10:36:17;97149.50;;;7.20;79.11
82171;BME280;71755;48.038;14.346;2024-03-08T10:38:45;97150.03;;;7.34;77.67
82171;BME280;71755;48.038;14.346;2024-03-08T10:41:13;97150.94;;;7.39;76.51
82171;BME280;71755;48.038;14.346;2024-03-08T10:46:26;97143.69;;;7.46;77.06
82171;BME280;71755;48.038;14.346;2024-03-08T10:48:57;97141.78;;;7.59;77.14
82171;BME280;71755;48.038;14.346;2024-03-08T10:51:25;97136.88;;;7.79;76.39
82171;BME280;71755;48.038;14.346;2024-03-08T10:53:53;97123.88;;;7.94;75.62
82171;BME280;71755;48.038;14.346;2024-03-08T10:56:20;97128.75;;;8.14;76.26
82171;BME280;71755;48.038;14.346;2024-03-08T10:58:48;97127.00;;;8.20;75.69
82171;BME280;71755;48.038;14.346;2024-03-08T11:01:15;97122.19;;;8.33;75.71
82171;BME280;71755;48.038;14.346;2024-03-08T11:09:08;97109.69;;;8.51;74.26
82171;BME280;71755;48.038;14.346;2024-03-08T11:11:43;97106.34;;;8.55;74.01
82171;BME280;71755;48.038;14.346;2024-03-08T11:14:45;97093.16;;;8.49;74.42
82171;BME280;71755;48.038;14.346;2024-03-08T11:17:15;97085.25;;;8.70;71.33
82171;BME280;71755;48.038;14.346;2024-03-08T11:19:48;97089.88;;;8.41;73.62
82171;BME280;71755;48.038;14.346;2024-03-08T11:22:22;97086.06;;;8.54;72.67
82171;BME280;71755;48.038;14.346;2024-03-08T11:24:53;97077.03;;;8.38;73.03
82171;BME280;71755;48.038;14.346;2024-03-08T11:27:19;97079.94;;;8.70;72.96
82171;BME280;71755;48.038;14.346;2024-03-08T11:30:09;97078.53;;;9.01;70.98
82171;BME280;71755;48.038;14.346;2024-03-08T11:32:38;97068.53;;;9.14;70.70
82171;BME280;71755;48.038;14.346;2024-03-08T11:35:08;97064.53;;;9.11;69.94
82171;BME280;71755;48.038;14.346;2024-03-08T11:37:44;97056.59;;;9.16;69.62
82171;BME280;71755;48.038;14.346;2024-03-08T11:40:14;97054.28;;;9.47;70.22
82171;BME280;71755;48.038;14.346;2024-03-08T11:42:45;97055.28;;;9.40;69.55
82171;BME280;71755;48.038;14.346;2024-03-08T11:45:17;97056.84;;;9.36;69.60
82171;BME280;71755;48.038;14.346;2024-03-08T11:47:45;97053.97;;;9.21;70.33
82171;BME280;71755;48.038;14.346;2024-03-08T11:50:13;97033.59;;;9.32;69.03
82171;BME280;71755;48.038;14.346;2024-03-08T11:52:39;97037.31;;;9.31;69.26
82171;BME280;71755;48.038;14.346;2024-03-08T11:55:06;97030.06;;;9.26;70.51
82171;BME280;71755;48.038;14.346;2024-03-08T11:57:32;97033.41;;;9.38;69.19
82171;BME280;71755;48.038;14.346;2024-03-08T11:59:59;97027.97;;;9.77;68.69
82171;BME280;71755;48.038;14.346;2024-03-08T12:02:34;97027.38;;;10.02;67.86
82171;BME280;71755;48.038;14.346;2024-03-08T12:05:06;97022.16;;;10.12;67.59
82171;BME280;71755;48.038;14.346;2024-03-08T12:07:35;97011.41;;;10.39;66.97
82171;BME280;71755;48.038;14.346;2024-03-08T12:10:20;97009.72;;;10.23;66.33
82171;BME280;71755;48.038;14.346;2024-03-08T12:12:49;97006.69;;;10.14;66.54
82171;BME280;71755;48.038;14.346;2024-03-08T12:15:18;97005.00;;;10.35;66.36
82171;BME280;71755;48.038;14.346;2024-03-08T12:17:47;96998.38;;;10.11;65.92
82171;BME280;71755;48.038;14.346;2024-03-08T12:20:25;97001.91;;;9.89;65.18
82171;BME280;71755;48.038;14.346;2024-03-08T12:22:53;96999.03;;;10.23;65.54
82171;BME280;71755;48.038;14.346;2024-03-08T12:25:25;96987.84;;;9.99;65.08
82171;BME280;71755;48.038;14.346;2024-03-08T12:27:52;96995.78;;;9.62;66.94
82171;BME280;71755;48.038;14.346;2024-03-08T12:30:21;96997.72;;;9.98;66.37
82171;BME280;71755;48.038;14.346;2024-03-08T12:32:56;96985.00;;;10.06;65.89
82171;BME280;71755;48.038;14.346;2024-03-08T12:35:24;96986.88;;;10.05;65.63
82171;BME280;71755;48.038;14.346;2024-03-08T12:37:53;96974.16;;;9.85;65.21
82171;BME280;71755;48.038;14.346;2024-03-08T12:40:29;96986.50;;;9.96;64.89
82171;BME280;71755;48.038;14.346;2024-03-08T12:42:58;96971.19;;;9.82;65.65
82171;BME280;71755;48.038;14.346;2024-03-08T12:45:25;96983.47;;;9.83;65.13
82171;BME280;71755;48.038;14.346;2024-03-08T12:47:51;96975.00;;;10.23;64.53
82171;BME280;71755;48.038;14.346;2024-03-08T12:50:20;96967.56;;;9.98;64.07
82171;BME280;71755;48.038;14.346;2024-03-08T12:52:46;96972.91;;;9.98;64.48
82171;BME280;71755;48.038;14.346;2024-03-08T12:55:13;96958.53;;;10.36;64.25
82171;BME280;71755;48.038;14.346;2024-03-08T12:57:44;96964.31;;;10.65;63.29
82171;BME280;71755;48.038;14.346;2024-03-08T13:00:11;96957.47;;;10.79;62.83